createdAt,value
2019-01-14T00:00:26.253Z,96660.77
2019-01-14T00:04:29.313Z,96657.16
2019-01-14T00:08:30.835Z,96653.09
2019-01-14T00:12:31.915Z,96642.45
2019-01-14T00:16:33.380Z,96638.05
2019-01-14T00:20:34.450Z,96632.64
2019-01-14T00:24:35.546Z,96629.37
2019-01-14T00:28:36.886Z,96623.79
2019-01-14T00:32:38.459Z,96622.00
2019-01-14T00:36:39.619Z,96614.31
2019-01-14T00:40:40.640Z,96614.66
2019-01-14T00:44:41.688Z,96613.00
2019-01-14T00:48:42.644Z,96605.81
2019-01-14T00:52:44.030Z,96601.56
2019-01-14T00:56:45.136Z,96604.84
2019-01-14T01:00:46.472Z,96595.51
2019-01-14T01:04:48.087Z,96587.99
2019-01-14T01:08:50.231Z,96584.22
2019-01-14T01:12:51.431Z,96582.91
2019-01-14T01:16:52.565Z,96582.91
2019-01-14T01:20:53.723Z,96572.13
2019-01-14T01:24:55.811Z,96577.03
2019-01-14T01:28:56.847Z,96572.95
2019-01-14T01:32:57.891Z,96567.05
2019-01-14T01:36:58.841Z,96566.41
2019-01-14T01:40:59.884Z,96559.37
2019-01-14T01:45:00.898Z,96554.95
2019-01-14T01:49:02.268Z,96552.15
2019-01-14T01:53:03.472Z,96550.53
2019-01-14T01:57:04.955Z,96543.18
2019-01-14T02:01:06.248Z,96537.76
2019-01-14T02:05:10.127Z,96534.66
2019-01-14T02:09:11.545Z,96532.70
2019-01-14T02:13:12.819Z,96522.08
2019-01-14T02:17:14.039Z,96534.83
2019-01-14T02:21:16.159Z,96526.30
2019-01-14T02:25:18.204Z,96521.40
2019-01-14T02:29:19.519Z,96512.41
2019-01-14T02:33:20.522Z,96517.48
2019-01-14T02:37:22.019Z,96508.17
2019-01-14T02:41:22.983Z,96503.09
2019-01-14T02:45:24.045Z,96501.12
2019-01-14T02:49:25.014Z,96504.41
2019-01-14T02:53:26.860Z,96499.34
2019-01-14T02:57:28.386Z,96491.63
2019-01-14T03:01:30.114Z,96493.63
2019-01-14T03:05:31.082Z,96480.36
2019-01-14T03:09:32.319Z,96483.98
2019-01-14T03:13:33.494Z,96479.23
2019-01-14T03:17:34.751Z,96481.02
2019-01-14T03:21:35.914Z,96471.22
2019-01-14T03:25:40.194Z,96472.19
2019-01-14T03:29:41.456Z,96473.97
2019-01-14T03:33:42.456Z,96466.28
2019-01-14T03:37:43.519Z,96469.41
2019-01-14T03:41:44.527Z,96460.58
2019-01-14T03:45:45.469Z,96458.45
2019-01-14T03:49:46.502Z,96459.92
2019-01-14T03:53:47.487Z,96453.86
2019-01-14T03:57:48.703Z,96443.25
2019-01-14T04:01:49.693Z,96443.58
2019-01-14T04:05:50.711Z,96447.97
2019-01-14T04:09:51.672Z,96442.59
2019-01-14T04:13:52.867Z,96443.90
2019-01-14T04:17:54.035Z,96439.48
2019-01-14T04:21:55.079Z,96436.22
2019-01-14T04:25:57.685Z,96437.20
2019-01-14T04:30:03.018Z,96435.22
2019-01-14T04:34:04.291Z,96431.96
2019-01-14T04:38:05.581Z,96435.72
2019-01-14T04:42:07.107Z,96439.47
2019-01-14T04:46:08.697Z,96422.16
2019-01-14T04:50:11.914Z,96424.44
2019-01-14T04:54:13.219Z,96416.92
2019-01-14T04:58:14.445Z,96422.31
2019-01-14T05:02:16.057Z,96411.84
2019-01-14T05:06:17.587Z,96416.44
2019-01-14T05:10:19.310Z,96413.00
2019-01-14T05:14:20.600Z,96407.77
2019-01-14T05:18:22.279Z,96406.62
2019-01-14T05:22:23.514Z,96405.14
2019-01-14T05:26:24.812Z,96412.52
2019-01-14T05:30:25.795Z,96404.48
2019-01-14T05:34:26.864Z,96408.09
2019-01-14T05:38:28.388Z,96404.66
2019-01-14T05:42:29.643Z,96395.19
2019-01-14T05:46:30.785Z,96400.56
2019-01-14T05:50:31.972Z,96399.43
2019-01-14T05:54:33.163Z,96402.54
2019-01-14T05:58:34.441Z,96403.69
2019-01-14T06:02:35.711Z,96404.17
2019-01-14T06:06:36.916Z,96397.30
2019-01-14T06:10:38.107Z,96408.59
2019-01-14T06:14:39.361Z,96408.59
2019-01-14T06:18:40.756Z,96411.69
2019-01-14T06:22:43.354Z,96416.27
2019-01-14T06:26:44.455Z,96411.84
2019-01-14T06:30:45.706Z,96419.68
2019-01-14T06:34:47.134Z,96415.11
2019-01-14T06:38:48.314Z,96411.53
2019-01-14T06:42:49.650Z,96411.84
2019-01-14T06:46:51.011Z,96420.02
2019-01-14T06:50:52.335Z,96424.42
2019-01-14T06:54:53.706Z,96425.39
2019-01-14T06:58:55.043Z,96438.46
2019-01-14T07:02:56.466Z,96439.95
2019-01-14T07:06:57.767Z,96442.91
2019-01-14T07:10:59.067Z,96446.00
2019-01-14T07:15:00.294Z,96446.00
2019-01-14T07:19:01.541Z,96446.30
2019-01-14T07:23:02.797Z,96442.23
2019-01-14T07:27:05.568Z,96443.37
2019-01-14T07:31:06.750Z,96450.41
2019-01-14T07:35:07.931Z,96457.59
2019-01-14T07:39:10.209Z,96455.15
2019-01-14T07:43:11.494Z,96463.14
2019-01-14T07:47:12.697Z,96458.39
2019-01-14T07:51:13.885Z,96461.34
2019-01-14T07:55:15.081Z,96458.41
2019-01-14T07:59:16.381Z,96463.64
2019-01-14T08:03:17.561Z,96464.97
2019-01-14T08:07:19.345Z,96469.19
2019-01-14T08:11:20.544Z,96472.64
2019-01-14T08:15:22.964Z,96477.05
2019-01-14T08:19:24.194Z,96486.37
2019-01-14T08:23:25.416Z,96484.23
2019-01-14T08:27:26.559Z,96485.41
2019-01-14T08:31:28.981Z,96485.41
2019-01-14T08:35:29.961Z,96486.06
2019-01-14T08:39:31.011Z,96494.41
2019-01-14T08:43:34.524Z,96498.49
2019-01-14T08:47:35.543Z,96504.55
2019-01-14T08:51:36.584Z,96507.47
2019-01-14T08:55:37.609Z,96509.30
2019-01-14T08:59:38.726Z,96513.36
2019-01-14T09:03:41.288Z,96518.89
2019-01-14T09:07:42.314Z,96519.55
2019-01-14T09:11:43.373Z,96530.50
2019-01-14T09:15:44.481Z,96534.23
2019-01-14T09:19:45.502Z,96542.38
2019-01-14T09:23:46.467Z,96539.62
2019-01-14T09:27:47.542Z,96537.62
2019-01-14T09:31:48.727Z,96557.69
2019-01-14T09:35:50.203Z,96562.72
2019-01-14T09:39:51.457Z,96569.70
2019-01-14T09:43:52.639Z,96580.30
2019-01-14T09:47:53.683Z,96580.20
2019-01-14T09:51:54.711Z,96585.25
2019-01-14T09:55:55.697Z,96590.09
2019-01-14T09:59:56.742Z,96591.40
2019-01-14T10:03:58.258Z,96587.52
2019-01-14T10:07:59.264Z,96598.03
2019-01-14T10:12:00.283Z,96598.00
2019-01-14T10:16:01.338Z,96608.83
2019-01-14T10:20:02.619Z,96606.25
2019-01-14T10:24:03.760Z,96612.95
2019-01-14T10:28:04.733Z,96617.53
2019-01-14T10:32:05.768Z,96617.67
2019-01-14T10:36:07.098Z,96622.45
2019-01-14T10:40:10.572Z,96620.66
2019-01-14T10:44:11.559Z,96621.41
2019-01-14T10:48:12.591Z,96627.81
2019-01-14T10:52:13.669Z,96630.91
2019-01-14T10:56:14.769Z,96628.53
2019-01-14T11:00:18.692Z,96630.55
2019-01-14T11:04:19.817Z,96644.31
2019-01-14T11:08:20.814Z,96636.81
2019-01-14T11:12:21.953Z,96656.07
2019-01-14T11:16:23.403Z,96649.09
2019-01-14T11:20:29.795Z,96662.16
2019-01-14T11:24:50.088Z,96661.56
2019-01-14T11:28:51.175Z,96668.88
2019-01-14T11:32:52.174Z,96669.05
2019-01-14T11:36:53.190Z,96669.91
2019-01-14T11:40:54.150Z,96683.43
2019-01-14T11:44:55.313Z,96688.78
2019-01-14T11:48:57.419Z,96697.27
2019-01-14T11:52:58.425Z,96687.35
2019-01-14T11:56:59.418Z,96698.70
2019-01-14T12:01:00.471Z,96707.30
2019-01-14T12:05:01.630Z,96705.28
2019-01-14T12:09:03.284Z,96708.70
2019-01-14T12:13:05.912Z,96714.34
2019-01-14T12:17:07.037Z,96716.39
2019-01-14T12:21:08.012Z,96727.97
2019-01-14T12:25:09.323Z,96727.91
2019-01-14T12:29:10.291Z,96726.53
2019-01-14T12:33:11.333Z,96738.61
2019-01-14T12:37:12.311Z,96742.71
2019-01-14T12:41:13.482Z,96753.81
2019-01-14T12:45:14.511Z,96754.73
2019-01-14T12:49:15.637Z,96759.42
2019-01-14T12:53:16.572Z,96772.80
2019-01-14T12:57:17.673Z,96780.62
2019-01-14T13:01:18.923Z,96777.13
2019-01-14T13:05:20.398Z,96785.98
2019-01-14T13:09:26.703Z,96791.06
2019-01-14T13:13:24.529Z,96793.26
2019-01-14T13:17:25.641Z,96797.33
2019-01-14T13:21:26.986Z,96799.45
2019-01-14T13:25:27.984Z,96798.44
2019-01-14T13:29:29.087Z,96805.44
2019-01-14T13:33:30.097Z,96821.75
2019-01-14T13:37:31.089Z,96821.91
2019-01-14T13:41:32.054Z,96825.76
2019-01-14T13:45:33.040Z,96825.76
2019-01-14T13:49:34.008Z,96842.07
2019-01-14T13:53:35.418Z,96846.23
2019-01-14T13:57:36.871Z,96853.22
2019-01-14T14:01:38.111Z,96846.56
2019-01-14T14:05:39.336Z,96855.84
2019-01-14T14:09:41.318Z,96864.34
2019-01-14T14:13:42.904Z,96862.84
2019-01-14T14:17:43.936Z,96868.48
2019-01-14T14:21:44.921Z,96877.93
2019-01-14T14:25:46.086Z,96890.09
2019-01-14T14:29:47.056Z,96893.92
2019-01-14T14:33:48.088Z,96901.00
2019-01-14T14:37:49.135Z,96899.89
2019-01-14T14:41:51.348Z,96911.90
2019-01-14T14:45:52.299Z,96908.14
2019-01-14T14:49:53.301Z,96909.02
2019-01-14T14:53:54.442Z,96920.69
2019-01-14T14:58:00.417Z,96925.82
2019-01-14T15:02:01.389Z,96930.95
2019-01-14T15:06:02.572Z,96935.20
2019-01-14T15:10:03.766Z,96929.50
2019-01-14T15:14:05.014Z,96930.04
2019-01-14T15:18:05.982Z,96940.72
2019-01-14T15:22:07.016Z,96944.48
2019-01-14T15:26:08.199Z,96950.97
2019-01-14T15:30:15.869Z,96954.48
2019-01-14T15:34:16.962Z,96954.77
2019-01-14T15:38:18.027Z,96965.83
2019-01-14T15:42:19.009Z,96971.15
2019-01-14T15:46:20.051Z,96977.23
2019-01-14T15:50:21.213Z,96972.23
2019-01-14T15:54:22.236Z,96984.83
2019-01-14T15:58:23.202Z,96981.66
2019-01-14T16:02:24.572Z,96980.73
2019-01-14T16:06:25.543Z,97000.29
2019-01-14T16:10:27.746Z,96997.95
2019-01-14T16:14:28.752Z,97006.61
2019-01-14T16:18:29.872Z,97008.05
2019-01-14T16:22:30.898Z,97018.63
2019-01-14T16:26:31.950Z,97011.84
2019-01-14T16:30:32.906Z,97017.48
2019-01-14T16:34:34.102Z,97021.17
2019-01-14T16:38:35.103Z,97029.78
2019-01-14T16:42:36.192Z,97025.98
2019-01-14T16:46:37.169Z,97027.67
2019-01-14T16:50:38.192Z,97030.63
2019-01-14T16:54:39.273Z,97037.73
2019-01-14T16:58:40.308Z,97041.77
2019-01-14T17:02:41.267Z,97050.36
2019-01-14T17:06:43.621Z,97040.20
2019-01-14T17:10:44.643Z,97048.34
2019-01-14T17:14:45.752Z,97059.56
2019-01-14T17:18:46.717Z,97060.23
2019-01-14T17:22:47.736Z,97058.95
2019-01-14T17:26:48.739Z,97055.81
2019-01-14T17:30:49.794Z,97067.68
2019-01-14T17:34:50.727Z,97073.14
2019-01-14T17:38:51.797Z,97080.22
2019-01-14T17:42:52.858Z,97082.08
2019-01-14T17:46:54.061Z,97078.62
2019-01-14T17:50:55.036Z,97079.92
2019-01-14T17:54:56.077Z,97082.45
2019-01-14T17:58:57.006Z,97090.83
2019-01-14T18:02:58.146Z,97094.48
2019-01-14T18:06:59.515Z,97100.52
2019-01-14T18:11:02.060Z,97111.13
2019-01-14T18:15:03.163Z,97115.70
2019-01-14T18:19:04.378Z,97114.70
2019-01-14T18:23:06.647Z,97108.23
2019-01-14T18:27:07.776Z,97111.56
2019-01-14T18:31:08.791Z,97128.23
2019-01-14T18:35:09.853Z,97128.59
2019-01-14T18:39:10.868Z,97122.34
2019-01-14T18:43:12.132Z,97127.01
2019-01-14T18:47:13.195Z,97131.59
2019-01-14T18:51:14.196Z,97127.56
2019-01-14T18:55:15.144Z,97130.16
2019-01-14T18:59:16.595Z,97137.09
2019-01-14T19:03:17.544Z,97141.58
2019-01-14T19:07:18.916Z,97141.11
2019-01-14T19:11:19.952Z,97139.20
2019-01-14T19:15:22.122Z,97144.64
2019-01-14T19:19:23.197Z,97144.01
2019-01-14T19:23:24.252Z,97139.50
2019-01-14T19:27:25.239Z,97141.03
2019-01-14T19:31:26.299Z,97137.23
2019-01-14T19:35:27.291Z,97146.09
2019-01-14T19:39:28.326Z,97151.51
2019-01-14T19:43:29.306Z,97148.11
2019-01-14T19:47:30.554Z,97158.03
2019-01-14T19:51:31.557Z,97165.39
2019-01-14T19:55:33.617Z,97162.59
2019-01-14T19:59:35.127Z,97166.75
2019-01-14T20:03:36.194Z,97178.70
2019-01-14T20:07:37.178Z,97186.55
2019-01-14T20:11:38.785Z,97178.38
2019-01-14T20:15:39.812Z,97182.13
2019-01-14T20:19:41.108Z,97187.31
2019-01-14T20:23:42.250Z,97192.16
2019-01-14T20:27:43.254Z,97192.47
2019-01-14T20:31:44.250Z,97191.20
2019-01-14T20:35:45.385Z,97196.17
2019-01-14T20:39:46.396Z,97200.57
2019-01-14T20:43:47.616Z,97208.81
2019-01-14T20:47:48.602Z,97208.44
2019-01-14T20:51:49.658Z,97212.95
2019-01-14T20:55:50.649Z,97211.35
2019-01-14T20:59:51.665Z,97210.97
2019-01-14T21:03:52.639Z,97219.80
2019-01-14T21:07:53.674Z,97221.58
2019-01-14T21:11:54.698Z,97225.12
2019-01-14T21:16:02.557Z,97235.17
2019-01-14T21:19:58.414Z,97241.87
2019-01-14T21:23:59.657Z,97244.65
2019-01-14T21:28:00.874Z,97244.30
2019-01-14T21:32:02.958Z,97252.56
2019-01-14T21:36:04.499Z,97263.19
2019-01-14T21:40:06.121Z,97266.62
2019-01-14T21:44:07.578Z,97271.56
2019-01-14T21:48:16.945Z,97281.16
2019-01-14T21:52:12.374Z,97278.23
2019-01-14T21:56:13.643Z,97274.91
2019-01-14T22:00:16.979Z,97277.23
2019-01-14T22:04:18.530Z,97277.23
2019-01-14T22:08:20.025Z,97282.13
2019-01-14T22:12:21.161Z,97280.92
2019-01-14T22:16:22.224Z,97294.18
2019-01-14T22:20:28.359Z,97291.97
2019-01-14T22:24:31.136Z,97296.02
2019-01-14T22:28:32.367Z,97301.95
2019-01-14T22:32:33.403Z,97312.61
2019-01-14T22:36:34.394Z,97312.61
2019-01-14T22:40:35.377Z,97309.48
2019-01-14T22:44:36.390Z,97319.72
2019-01-14T22:48:37.340Z,97323.66
2019-01-14T22:52:38.513Z,97327.53
2019-01-14T22:56:40.028Z,97330.20
2019-01-14T23:01:19.417Z,97319.33
2019-01-14T23:05:20.913Z,97337.86
2019-01-14T23:09:21.932Z,97338.68
2019-01-14T23:13:23.437Z,97343.30
2019-01-14T23:17:25.412Z,97346.34
2019-01-14T23:21:26.362Z,97350.29
2019-01-14T23:25:29.679Z,97357.95
2019-01-14T23:29:30.817Z,97358.78
2019-01-14T23:33:31.917Z,97359.70
2019-01-14T23:37:32.905Z,97363.93
2019-01-14T23:41:34.508Z,97371.41
2019-01-14T23:45:35.677Z,97373.42
2019-01-14T23:49:38.459Z,97380.03
2019-01-14T23:53:39.641Z,97382.84
2019-01-14T23:57:40.665Z,97378.73
